MSC Krittika — H3RV — position and weather

sailwx.info

Track history (hours):
 
Tides and Currents Weather Stations Pressure Air Temp Water Temp Dewpoint Dewpoint Depression Visibility Wind Speed Wind Dir Waves Ship Positions

MSC Krittika

Last reported at 2015-Sep-01 20:33 UTC. Time now 2015-Sep-03 15:06 UTC.
Position N 01°15' E 104°05'.

Length 202 m; draft 11.4 m.

Type: Ship (hazmat cat A). MMSI: 354725000.

Date/timePositionNaut miles runAvg speedWind from/ knotsBaromVisibWave heightAir tempDewpointWater temp
2015-Sep-01 20:33N 01°15' E 104°05'1615.3
2015-Sep-01 19:32N 01°11' E 103°50'7 6.9
2015-Sep-01 18:33N 01°16' E 103°46'0 0.0
2015-Sep-01 17:24N 01°16' E 103°46'0 0.0
2015-Sep-01 16:33N 01°16' E 103°46'0 0.0
2015-Sep-01 15:33N 01°16' E 103°46'0 0.0
2015-Sep-01 14:33N 01°16' E 103°46'0 0.0
2015-Sep-01 13:33N 01°16' E 103°46'0 0.0
2015-Sep-01 12:27N 01°16' E 103°46'0 0.0
2015-Sep-01 11:33N 01°16' E 103°46'0 0.0
2015-Sep-01 10:33N 01°16' E 103°46'0 0.0
2015-Sep-01 09:21N 01°16' E 103°46'0 0.0
2015-Sep-01 08:33N 01°16' E 103°46'0 0.0
2015-Sep-01 07:33N 01°16' E 103°46'0 0.0
2015-Sep-01 06:33N 01°16' E 103°46'0 0.0
2015-Sep-01 05:21N 01°16' E 103°46'0 0.0
2015-Sep-01 04:33N 01°16' E 103°46'0 0.0
2015-Sep-01 03:33N 01°16' E 103°46'0 0.0
2015-Sep-01 02:27N 01°16' E 103°46'0 0.0
2015-Sep-01 01:24N 01°16' E 103°46'0 0.0
2015-Sep-01 00:30N 01°16' E 103°46'0 0.0
2015-Aug-31 23:33N 01°16' E 103°46'0 0.0
2015-Aug-31 22:33N 01°16' E 103°46'0 0.0
2015-Aug-31 21:33N 01°16' E 103°46'0 0.0
2015-Aug-31 20:33N 01°16' E 103°46'0 0.0
2015-Aug-31 19:24N 01°16' E 103°46'0 0.0
2015-Aug-31 18:33N 01°16' E 103°46'0 0.0
2015-Aug-31 17:21N 01°16' E 103°46'0 0.0
2015-Aug-31 16:09N 01°16' E 103°46'0 0.1
2015-Aug-31 15:33N 01°16' E 103°46'5 5.0
2015-Aug-31 14:33N 01°13' E 103°42'8 7.2
2015-Aug-31 13:29N 01°13' E 103°34'3 0.4
2015-Aug-31 05:27N 01°16' E 103°33'1 0.1
2015-Aug-30 13:07N 01°15' E 103°33'1 0.5
2015-Aug-30 10:16N 01°15' E 103°34'2 2.6
2015-Aug-30 09:23N 01°13' E 103°33'1012.0
2015-Aug-30 08:33N 01°09' E 103°42'1313.3
2015-Aug-30 07:33N 01°13' E 103°54'1413.4
2015-Aug-30 06:30N 01°17' E 104°08'  
Track history (hours):
 
Tides and Currents Weather Stations Pressure Air Temp Water Temp Dewpoint Dewpoint Depression Visibility Wind Speed Wind Dir Waves Ship Positions

MSC Krittika

Last reported at 2015-Sep-01 20:33 UTC. Time now 2015-Sep-03 15:06 UTC.
Position N 01°15' E 104°05'.

Length 202 m; draft 11.4 m.

Type: Ship (hazmat cat A). MMSI: 354725000.

Date/timePositionNaut miles runAvg speedWind from/ knotsBaromVisibWave heightAir tempDewpointWater temp
2015-Sep-01 20:33N 01°15' E 104°05'1615.3
2015-Sep-01 19:32N 01°11' E 103°50'7 6.9
2015-Sep-01 18:33N 01°16' E 103°46'0 0.0
2015-Sep-01 17:24N 01°16' E 103°46'0 0.0
2015-Sep-01 16:33N 01°16' E 103°46'0 0.0
2015-Sep-01 15:33N 01°16' E 103°46'0 0.0
2015-Sep-01 14:33N 01°16' E 103°46'0 0.0
2015-Sep-01 13:33N 01°16' E 103°46'0 0.0
2015-Sep-01 12:27N 01°16' E 103°46'0 0.0
2015-Sep-01 11:33N 01°16' E 103°46'0 0.0
2015-Sep-01 10:33N 01°16' E 103°46'0 0.0
2015-Sep-01 09:21N 01°16' E 103°46'0 0.0
2015-Sep-01 08:33N 01°16' E 103°46'0 0.0
2015-Sep-01 07:33N 01°16' E 103°46'0 0.0
2015-Sep-01 06:33N 01°16' E 103°46'0 0.0
2015-Sep-01 05:21N 01°16' E 103°46'0 0.0
2015-Sep-01 04:33N 01°16' E 103°46'0 0.0
2015-Sep-01 03:33N 01°16' E 103°46'0 0.0
2015-Sep-01 02:27N 01°16' E 103°46'0 0.0
2015-Sep-01 01:24N 01°16' E 103°46'0 0.0
2015-Sep-01 00:30N 01°16' E 103°46'0 0.0
2015-Aug-31 23:33N 01°16' E 103°46'0 0.0
2015-Aug-31 22:33N 01°16' E 103°46'0 0.0
2015-Aug-31 21:33N 01°16' E 103°46'0 0.0
2015-Aug-31 20:33N 01°16' E 103°46'0 0.0
2015-Aug-31 19:24N 01°16' E 103°46'0 0.0
2015-Aug-31 18:33N 01°16' E 103°46'0 0.0
2015-Aug-31 17:21N 01°16' E 103°46'0 0.0
2015-Aug-31 16:09N 01°16' E 103°46'0 0.1
2015-Aug-31 15:33N 01°16' E 103°46'5 5.0
2015-Aug-31 14:33N 01°13' E 103°42'8 7.2
2015-Aug-31 13:29N 01°13' E 103°34'3 0.4
2015-Aug-31 05:27N 01°16' E 103°33'1 0.1
2015-Aug-30 13:07N 01°15' E 103°33'1 0.5
2015-Aug-30 10:16N 01°15' E 103°34'2 2.6
2015-Aug-30 09:23N 01°13' E 103°33'1012.0
2015-Aug-30 08:33N 01°09' E 103°42'1313.3
2015-Aug-30 07:33N 01°13' E 103°54'1413.4
2015-Aug-30 06:30N 01°17' E 104°08'  

Dump ship's entire track history